Time,TemperatureF,DewpointF,PressureIn,WindDirection,WindDirectionDegrees,WindSpeedMPH,WindSpeedGustMPH,Humidity,HourlyPrecipIn,Conditions,Clouds,dailyrainin,SoftwareType,DateUTC
2013-05-14 00:01:00,41.7,32.4,30.20,SSE,163,0.0,0.0,69,0.00,,,0.00,meteohub,2013-05-14 04:01:00,
2013-05-14 00:06:00,41.4,32.0,30.21,SSE,165,0.0,0.0,69,0.00,,,0.00,meteohub,2013-05-14 04:06:00,
2013-05-14 00:11:00,41.2,32.9,30.21,SSE,163,0.0,0.0,72,0.00,,,0.00,meteohub,2013-05-14 04:11:00,
2013-05-14 00:16:00,40.6,32.0,30.21,SSE,163,0.0,0.0,71,0.00,,,0.00,meteohub,2013-05-14 04:16:00,
2013-05-14 00:21:00,40.3,32.4,30.21,SSE,163,0.0,0.0,73,0.00,,,0.00,meteohub,2013-05-14 04:21:00,
2013-05-14 00:26:00,39.9,32.7,30.21,SSE,152,0.0,0.0,75,0.00,,,0.00,meteohub,2013-05-14 04:26:00,
2013-05-14 00:32:00,39.7,32.7,30.21,SSE,152,0.0,0.0,76,0.00,,,0.00,meteohub,2013-05-14 04:32:00,
2013-05-14 00:37:00,39.6,33.3,30.21,SSE,152,0.0,0.0,78,0.00,,,0.00,meteohub,2013-05-14 04:37:00,
2013-05-14 00:42:00,39.4,33.1,30.21,SSE,151,0.0,0.0,78,0.00,,,0.00,meteohub,2013-05-14 04:42:00,
2013-05-14 00:46:00,39.4,33.4,30.21,SSE,151,0.0,0.0,79,0.00,,,0.00,meteohub,2013-05-14 04:46:00,
2013-05-14 00:52:00,39.0,33.1,30.21,WSW,240,0.0,0.0,79,0.00,,,0.00,meteohub,2013-05-14 04:52:00,
2013-05-14 00:57:00,39.0,33.4,30.21,WNW,284,0.0,1.0,80,0.00,,,0.00,meteohub,2013-05-14 04:57:00,
2013-05-14 01:02:00,38.8,33.3,30.21,ESE,107,0.0,1.0,80,0.00,,,0.00,meteohub,2013-05-14 05:02:00,
2013-05-14 01:07:00,38.7,33.6,30.21,West,273,1.0,1.0,82,0.00,,,0.00,meteohub,2013-05-14 05:07:00,
2013-05-14 01:12:00,38.5,33.1,30.22,WNW,300,0.0,1.0,81,0.00,,,0.00,meteohub,2013-05-14 05:12:00,
2013-05-14 01:17:00,38.1,33.1,30.22,WNW,301,0.0,1.0,82,0.00,,,0.00,meteohub,2013-05-14 05:17:00,
2013-05-14 01:22:00,37.9,33.3,30.22,WNW,301,0.0,1.0,83,0.00,,,0.00,meteohub,2013-05-14 05:22:00,
2013-05-14 01:27:00,37.8,33.4,30.22,WNW,301,0.0,0.0,84,0.00,,,0.00,meteohub,2013-05-14 05:27:00,
2013-05-14 01:32:00,37.6,33.4,30.22,WNW,301,0.0,0.0,85,0.00,,,0.00,meteohub,2013-05-14 05:32:00,
2013-05-14 01:37:00,37.2,33.1,30.22,WNW,301,0.0,0.0,85,0.00,,,0.00,meteohub,2013-05-14 05:37:00,
2013-05-14 01:42:00,37.0,33.3,30.22,WNW,301,0.0,0.0,86,0.00,,,0.00,meteohub,2013-05-14 05:42:00,
2013-05-14 01:47:00,37.0,33.6,30.22,WNW,301,0.0,0.0,87,0.00,,,0.00,meteohub,2013-05-14 05:47:00,
2013-05-14 01:52:00,37.0,33.3,30.22,WNW,301,0.0,0.0,86,0.00,,,0.00,meteohub,2013-05-14 05:52:00,
2013-05-14 01:57:00,37.0,33.3,30.22,WNW,301,0.0,0.0,86,0.00,,,0.00,meteohub,2013-05-14 05:57:00,
2013-05-14 02:02:00,36.9,32.7,30.22,WNW,301,0.0,0.0,85,0.00,,,0.00,meteohub,2013-05-14 06:02:00,
2013-05-14 02:07:00,36.7,32.5,30.22,WNW,301,0.0,0.0,85,0.00,,,0.00,meteohub,2013-05-14 06:07:00,
2013-05-14 02:12:00,36.3,32.5,30.22,NW,314,0.0,0.0,86,0.00,,,0.00,meteohub,2013-05-14 06:12:00,
2013-05-14 02:17:00,36.1,32.7,30.22,NW,314,0.0,0.0,87,0.00,,,0.00,meteohub,2013-05-14 06:17:00,
2013-05-14 02:22:00,36.1,32.9,30.22,NW,314,0.0,0.0,88,0.00,,,0.00,meteohub,2013-05-14 06:22:00,
2013-05-14 02:27:00,36.0,32.7,30.22,NW,314,0.0,0.0,88,0.00,,,0.00,meteohub,2013-05-14 06:27:00,
2013-05-14 02:32:00,35.8,33.1,30.22,NW,314,0.0,0.0,90,0.00,,,0.00,meteohub,2013-05-14 06:32:00,
2013-05-14 02:37:00,35.6,32.9,30.22,NW,319,0.0,0.0,90,0.00,,,0.00,meteohub,2013-05-14 06:37:00,
2013-05-14 02:42:00,35.4,33.1,30.22,NW,319,0.0,0.0,91,0.00,,,0.00,meteohub,2013-05-14 06:42:00,
2013-05-14 02:47:00,35.2,32.9,30.22,NW,319,0.0,0.0,91,0.00,,,0.00,meteohub,2013-05-14 06:47:00,
2013-05-14 02:52:00,34.9,32.5,30.22,NW,319,0.0,0.0,91,0.00,,,0.00,meteohub,2013-05-14 06:52:00,
2013-05-14 02:57:00,34.7,32.4,30.22,NW,319,0.0,0.0,91,0.00,,,0.00,meteohub,2013-05-14 06:57:00,
2013-05-14 03:02:00,34.9,33.1,30.22,NW,316,0.0,0.0,93,0.00,,,0.00,meteohub,2013-05-14 07:02:00,
2013-05-14 03:07:00,35.1,32.9,30.22,West,281,0.0,0.0,92,0.00,,,0.00,meteohub,2013-05-14 07:07:00,
2013-05-14 03:12:00,35.1,32.7,30.22,WNW,286,0.0,0.0,91,0.00,,,0.00,meteohub,2013-05-14 07:12:00,
2013-05-14 03:17:00,35.1,32.7,30.22,WNW,287,0.0,0.0,91,0.00,,,0.00,meteohub,2013-05-14 07:17:00,
2013-05-14 03:22:00,35.1,32.2,30.22,WNW,286,0.0,0.0,89,0.00,,,0.00,meteohub,2013-05-14 07:22:00,
2013-05-14 03:27:00,35.2,32.4,30.22,WNW,287,0.0,0.0,89,0.00,,,0.00,meteohub,2013-05-14 07:27:00,
2013-05-14 03:32:00,35.6,32.9,30.22,WSW,257,0.0,0.0,90,0.00,,,0.00,meteohub,2013-05-14 07:32:00,
2013-05-14 03:37:00,35.6,32.7,30.22,West,259,0.0,0.0,89,0.00,,,0.00,meteohub,2013-05-14 07:37:00,
2013-05-14 03:42:00,35.4,32.2,30.22,NNW,338,0.0,0.0,88,0.00,,,0.00,meteohub,2013-05-14 07:42:00,
2013-05-14 03:47:00,35.2,32.4,30.22,NW,304,0.0,0.0,89,0.00,,,0.00,meteohub,2013-05-14 07:47:00,
2013-05-14 03:52:00,35.4,32.7,30.22,WNW,301,0.0,1.0,90,0.00,,,0.00,meteohub,2013-05-14 07:52:00,
2013-05-14 03:57:00,36.1,32.7,30.22,NW,319,0.0,2.0,87,0.00,,,0.00,meteohub,2013-05-14 07:57:00,
2013-05-14 04:02:00,36.1,32.7,30.22,NW,320,0.0,2.0,87,0.00,,,0.00,meteohub,2013-05-14 08:02:00,
2013-05-14 04:07:00,35.6,32.4,30.22,NW,321,0.0,2.0,88,0.00,,,0.00,meteohub,2013-05-14 08:07:00,
2013-05-14 04:12:00,35.1,32.4,30.22,NNE,25,0.0,1.0,90,0.00,,,0.00,meteohub,2013-05-14 08:12:00,
2013-05-14 04:17:00,34.5,32.2,30.23,NNE,23,0.0,0.0,91,0.00,,,0.00,meteohub,2013-05-14 08:17:00,
2013-05-14 04:22:00,34.3,32.2,30.22,NNE,23,0.0,0.0,92,0.00,,,0.00,meteohub,2013-05-14 08:22:00,
2013-05-14 04:27:00,33.3,31.1,30.22,NNE,23,0.0,0.0,92,0.00,,,0.00,meteohub,2013-05-14 08:27:00,
2013-05-14 04:32:00,33.3,31.1,30.22,NNE,23,0.0,0.0,92,0.00,,,0.00,meteohub,2013-05-14 08:32:00,
2013-05-14 04:37:00,33.3,31.1,30.22,North,-999,-999.0,0.0,92,0.00,,,0.00,meteohub,2013-05-14 08:37:00,
2013-05-14 07:21:00,32.5,31.8,30.24,North,-999,-999.0,-999.0,97,-99.99,,,0.00,meteohub,2013-05-14 11:21:00,
2013-05-14 07:26:00,33.3,32.5,30.24,North,-999,-999.0,-999.0,97,0.00,,,0.00,meteohub,2013-05-14 11:26:00,
2013-05-14 07:31:00,33.6,32.5,30.25,NW,308,0.0,0.0,96,0.00,,,0.00,meteohub,2013-05-14 11:31:00,
2013-05-14 07:36:00,34.2,33.1,30.25,NW,308,0.0,0.0,96,0.00,,,0.00,meteohub,2013-05-14 11:36:00,
2013-05-14 07:41:00,34.5,33.4,30.25,NW,308,0.0,0.0,96,0.00,,,0.00,meteohub,2013-05-14 11:41:00,
2013-05-14 07:46:00,35.1,33.8,30.25,NW,308,0.0,0.0,95,0.00,,,0.00,meteohub,2013-05-14 11:46:00,
2013-05-14 07:51:00,35.8,34.2,30.25,NW,308,0.0,0.0,94,0.00,,,0.00,meteohub,2013-05-14 11:51:00,
2013-05-14 07:56:00,36.1,34.5,30.25,NW,308,0.0,0.0,94,0.00,,,0.00,meteohub,2013-05-14 11:56:00,
2013-05-14 08:01:00,36.7,34.9,30.25,NW,307,0.0,0.0,93,0.00,,,0.00,meteohub,2013-05-14 12:01:00,
2013-05-14 08:06:00,37.2,35.1,30.25,WSW,256,0.0,0.0,92,0.00,,,0.00,meteohub,2013-05-14 12:06:00,
2013-05-14 08:11:00,38.1,35.4,30.25,WSW,256,0.0,0.0,90,0.00,,,0.00,meteohub,2013-05-14 12:11:00,
2013-05-14 08:16:00,39.4,35.8,30.25,WSW,256,0.0,0.0,87,0.00,,,0.00,meteohub,2013-05-14 12:16:00,
2013-05-14 08:21:00,40.6,36.9,30.25,SSW,195,0.0,0.0,86,0.00,,,0.00,meteohub,2013-05-14 12:21:00,
2013-05-14 08:26:00,41.7,37.2,30.25,SSW,196,0.0,0.0,84,0.00,,,0.00,meteohub,2013-05-14 12:26:00,
2013-05-14 08:31:00,42.4,36.1,30.25,WNW,293,0.0,2.0,78,0.00,,,0.00,meteohub,2013-05-14 12:31:00,
2013-05-14 08:36:00,43.2,37.0,30.25,SW,233,0.0,2.0,79,0.00,,,0.00,meteohub,2013-05-14 12:36:00,
2013-05-14 08:41:00,45.1,39.0,30.25,SW,233,0.0,2.0,79,0.00,,,0.00,meteohub,2013-05-14 12:41:00,
2013-05-14 08:46:00,47.1,38.8,30.25,SSE,159,0.0,2.0,73,0.00,,,0.00,meteohub,2013-05-14 12:46:00,
2013-05-14 08:51:00,48.9,39.9,30.25,South,184,0.0,0.0,71,0.00,,,0.00,meteohub,2013-05-14 12:51:00,
2013-05-14 08:56:00,49.8,39.7,30.26,SE,127,0.0,0.0,68,0.00,,,0.00,meteohub,2013-05-14 12:56:00,
2013-05-14 09:01:00,50.7,40.1,30.26,SE,124,0.0,1.0,67,0.00,,,0.00,meteohub,2013-05-14 13:01:00,
2013-05-14 09:06:00,50.7,39.4,30.25,SE,140,0.0,1.0,65,0.00,,,0.00,meteohub,2013-05-14 13:06:00,
2013-05-14 09:12:00,52.0,39.7,30.25,SSE,147,0.0,3.0,63,0.00,,,0.00,meteohub,2013-05-14 13:12:00,
2013-05-14 09:17:00,52.2,39.9,30.25,SE,129,0.0,3.0,63,0.00,,,0.00,meteohub,2013-05-14 13:17:00,
2013-05-14 09:22:00,53.8,39.4,30.25,ESE,121,0.0,2.0,58,0.00,,,0.00,meteohub,2013-05-14 13:22:00,
2013-05-14 09:27:00,54.7,38.3,30.25,SSE,151,1.0,2.0,54,0.00,,,0.00,meteohub,2013-05-14 13:27:00,
2013-05-14 09:32:00,55.6,37.8,30.25,ESE,119,2.0,2.0,51,0.00,,,0.00,meteohub,2013-05-14 13:32:00,
2013-05-14 09:37:00,55.8,37.4,30.25,SSW,195,2.0,3.0,50,0.00,,,0.00,meteohub,2013-05-14 13:37:00,
2013-05-14 09:42:00,56.7,39.2,30.25,SE,125,0.0,3.0,52,0.00,,,0.00,meteohub,2013-05-14 13:42:00,
2013-05-14 09:47:00,57.9,36.7,30.25,ESE,102,0.0,3.0,45,0.00,,,0.00,meteohub,2013-05-14 13:47:00,
2013-05-14 09:52:00,57.9,35.6,30.25,WSW,250,3.0,3.0,43,0.00,,,0.00,meteohub,2013-05-14 13:52:00,
2013-05-14 09:57:00,57.9,36.1,30.25,East,96,1.0,4.0,44,0.00,,,0.00,meteohub,2013-05-14 13:57:00,
2013-05-14 10:02:00,59.0,37.0,30.25,SE,142,1.0,4.0,44,0.00,,,0.00,meteohub,2013-05-14 14:02:00,
2013-05-14 10:07:00,58.6,35.1,30.25,ESE,117,0.0,4.0,41,0.00,,,0.00,meteohub,2013-05-14 14:07:00,
2013-05-14 10:12:00,59.4,36.9,30.24,SSW,200,2.0,5.0,43,0.00,,,0.00,meteohub,2013-05-14 14:12:00,
2013-05-14 10:17:00,59.2,34.9,30.24,East,81,2.0,5.0,40,0.00,,,0.00,meteohub,2013-05-14 14:17:00,
2013-05-14 10:22:00,59.5,36.5,30.24,WSW,256,4.0,6.0,42,0.00,,,0.00,meteohub,2013-05-14 14:22:00,
2013-05-14 10:27:00,59.7,36.5,30.25,NW,317,2.0,6.0,42,0.00,,,0.00,meteohub,2013-05-14 14:27:00,
2013-05-14 10:32:00,60.1,36.3,30.25,SSE,156,2.0,7.0,41,0.00,,,0.00,meteohub,2013-05-14 14:32:00,
2013-05-14 10:37:00,60.3,35.8,30.25,West,269,0.0,7.0,40,0.00,,,0.00,meteohub,2013-05-14 14:37:00,
2013-05-14 10:42:00,60.6,35.6,30.25,WSW,256,2.0,7.0,39,0.00,,,0.00,meteohub,2013-05-14 14:42:00,
2013-05-14 10:47:00,61.3,36.9,30.25,SSE,158,1.0,7.0,40,0.00,,,0.00,meteohub,2013-05-14 14:47:00,
2013-05-14 10:52:00,62.2,35.6,30.25,South,185,2.0,7.0,37,0.00,,,0.00,meteohub,2013-05-14 14:52:00,
2013-05-14 10:56:00,61.9,35.2,30.25,WNW,291,4.0,7.0,37,0.00,,,0.00,meteohub,2013-05-14 14:56:00,
2013-05-14 11:02:00,61.2,35.4,30.25,West,269,1.0,7.0,38,0.00,,,0.00,meteohub,2013-05-14 15:02:00,
2013-05-14 11:07:00,61.2,34.0,30.25,West,268,1.0,7.0,36,0.00,,,0.00,meteohub,2013-05-14 15:07:00,
2013-05-14 11:12:00,61.0,35.2,30.25,NW,304,6.0,6.0,38,0.00,,,0.00,meteohub,2013-05-14 15:12:00,
2013-05-14 11:17:00,61.5,35.6,30.25,South,174,6.0,8.0,38,0.00,,,0.00,meteohub,2013-05-14 15:17:00,
2013-05-14 11:22:00,61.5,36.3,30.25,NW,321,1.0,9.0,39,0.00,,,0.00,meteohub,2013-05-14 15:22:00,
2013-05-14 11:27:00,61.5,35.1,30.25,NW,323,0.0,9.0,37,0.00,,,0.00,meteohub,2013-05-14 15:27:00,
2013-05-14 11:32:00,62.4,36.5,30.25,West,281,2.0,9.0,38,0.00,,,0.00,meteohub,2013-05-14 15:32:00,
2013-05-14 11:37:00,61.9,36.7,30.25,North,353,0.0,6.0,39,0.00,,,0.00,meteohub,2013-05-14 15:37:00,
2013-05-14 11:42:00,62.6,37.9,30.25,SSW,200,3.0,6.0,40,0.00,,,0.00,meteohub,2013-05-14 15:42:00,
2013-05-14 11:47:00,63.3,37.2,30.25,ENE,75,0.0,6.0,38,0.00,,,0.00,meteohub,2013-05-14 15:47:00,
2013-05-14 11:52:00,62.4,35.8,30.25,SE,145,5.0,10.0,37,0.00,,,0.00,meteohub,2013-05-14 15:52:00,
2013-05-14 11:57:00,62.2,37.6,30.25,NW,318,4.0,10.0,40,0.00,,,0.00,meteohub,2013-05-14 15:57:00,
2013-05-14 12:02:00,63.0,37.0,30.25,SSE,150,3.0,10.0,38,0.00,,,0.00,meteohub,2013-05-14 16:02:00,
2013-05-14 12:07:00,63.7,38.3,30.25,SW,214,3.0,10.0,39,0.00,,,0.00,meteohub,2013-05-14 16:07:00,
2013-05-14 12:12:00,64.0,37.9,30.25,SE,133,4.0,10.0,38,0.00,,,0.00,meteohub,2013-05-14 16:12:00,
2013-05-14 12:17:00,64.6,37.8,30.25,West,281,3.0,9.0,37,0.00,,,0.00,meteohub,2013-05-14 16:17:00,
2013-05-14 12:22:00,64.6,37.8,30.25,East,79,1.0,10.0,37,0.00,,,0.00,meteohub,2013-05-14 16:22:00,
2013-05-14 12:26:00,64.6,38.5,30.24,East,91,2.0,10.0,38,0.00,,,0.00,meteohub,2013-05-14 16:26:00,
2013-05-14 12:32:00,64.6,38.5,30.25,SE,135,3.0,10.0,38,0.00,,,0.00,meteohub,2013-05-14 16:32:00,
2013-05-14 12:37:00,64.4,38.8,30.24,East,89,5.0,8.0,39,0.00,,,0.00,meteohub,2013-05-14 16:37:00,
2013-05-14 12:42:00,64.2,38.7,30.24,SE,124,2.0,8.0,39,0.00,,,0.00,meteohub,2013-05-14 16:42:00,
2013-05-14 12:47:00,64.4,38.3,30.24,SE,134,2.0,9.0,38,0.00,,,0.00,meteohub,2013-05-14 16:47:00,
2013-05-14 12:52:00,64.6,39.0,30.24,West,260,6.0,9.0,39,0.00,,,0.00,meteohub,2013-05-14 16:52:00,
2013-05-14 12:57:00,64.9,38.7,30.24,ESE,116,2.0,10.0,38,0.00,,,0.00,meteohub,2013-05-14 16:57:00,
2013-05-14 13:02:00,64.6,39.0,30.24,SSE,163,3.0,10.0,39,0.00,,,0.00,meteohub,2013-05-14 17:02:00,
2013-05-14 13:07:00,64.2,40.1,30.23,NNW,340,1.0,10.0,41,0.00,,,0.00,meteohub,2013-05-14 17:07:00,
2013-05-14 13:12:00,66.2,41.2,30.23,NW,318,1.0,8.0,40,0.00,,,0.00,meteohub,2013-05-14 17:12:00,
2013-05-14 13:17:00,66.0,39.7,30.23,WSW,246,4.0,9.0,38,0.00,,,0.00,meteohub,2013-05-14 17:17:00,
2013-05-14 13:22:00,66.0,40.3,30.22,East,84,2.0,10.0,39,0.00,,,0.00,meteohub,2013-05-14 17:22:00,
2013-05-14 13:27:00,66.4,41.4,30.22,WSW,245,3.0,10.0,40,0.00,,,0.00,meteohub,2013-05-14 17:27:00,
2013-05-14 13:32:00,66.4,40.6,30.22,North,4,1.0,10.0,39,0.00,,,0.00,meteohub,2013-05-14 17:32:00,
2013-05-14 13:37:00,66.2,40.5,30.22,East,98,2.0,8.0,39,0.00,,,0.00,meteohub,2013-05-14 17:37:00,
2013-05-14 13:42:00,65.5,41.2,30.22,South,173,5.0,14.0,41,0.00,,,0.00,meteohub,2013-05-14 17:42:00,
2013-05-14 13:47:00,65.8,40.8,30.21,ESE,103,4.0,14.0,40,0.00,,,0.00,meteohub,2013-05-14 17:47:00,
2013-05-14 13:52:00,65.7,40.6,30.21,SE,141,1.0,14.0,40,0.00,,,0.00,meteohub,2013-05-14 17:52:00,
2013-05-14 13:57:00,65.1,40.3,30.21,WSW,242,1.0,14.0,40,0.00,,,0.00,meteohub,2013-05-14 17:57:00,
2013-05-14 14:01:00,65.1,40.8,30.21,SE,137,6.0,14.0,41,0.00,,,0.00,meteohub,2013-05-14 18:01:00,
2013-05-14 14:07:00,66.0,40.3,30.20,ESE,111,4.0,14.0,39,0.00,,,0.00,meteohub,2013-05-14 18:07:00,
2013-05-14 14:12:00,65.8,40.8,30.19,South,180,2.0,13.0,40,0.00,,,0.00,meteohub,2013-05-14 18:12:00,
2013-05-14 14:17:00,66.4,41.9,30.19,West,273,3.0,12.0,41,0.00,,,0.00,meteohub,2013-05-14 18:17:00,
2013-05-14 14:22:00,66.7,41.0,30.19,SW,221,2.0,12.0,39,0.00,,,0.00,meteohub,2013-05-14 18:22:00,
2013-05-14 14:27:00,67.5,41.7,30.19,East,90,2.0,11.0,39,0.00,,,0.00,meteohub,2013-05-14 18:27:00,
2013-05-14 14:32:00,67.6,41.2,30.19,ESE,113,4.0,11.0,38,0.00,,,0.00,meteohub,2013-05-14 18:32:00,
2013-05-14 14:37:00,68.0,42.1,30.19,East,89,5.0,9.0,39,0.00,,,0.00,meteohub,2013-05-14 18:37:00,
2013-05-14 14:42:00,67.8,42.6,30.19,North,355,1.0,10.0,40,0.00,,,0.00,meteohub,2013-05-14 18:42:00,
2013-05-14 14:47:00,66.9,41.2,30.18,ENE,76,9.0,12.0,39,0.00,,,0.00,meteohub,2013-05-14 18:47:00,
2013-05-14 14:52:00,67.6,43.2,30.18,East,82,0.0,12.0,41,0.00,,,0.00,meteohub,2013-05-14 18:52:00,
2013-05-14 14:57:00,69.4,43.3,30.17,South,173,3.0,12.0,39,0.00,,,0.00,meteohub,2013-05-14 18:57:00,
2013-05-14 15:02:00,69.3,42.6,30.17,SSE,153,3.0,11.0,38,0.00,,,0.00,meteohub,2013-05-14 19:02:00,
2013-05-14 15:07:00,69.1,42.4,30.18,ESE,121,5.0,12.0,38,0.00,,,0.00,meteohub,2013-05-14 19:07:00,
2013-05-14 15:12:00,67.3,43.3,30.17,SE,145,6.0,12.0,42,0.00,,,0.00,meteohub,2013-05-14 19:12:00,
2013-05-14 15:17:00,67.1,42.6,30.17,East,95,2.0,14.0,41,0.00,,,0.00,meteohub,2013-05-14 19:17:00,
2013-05-14 15:22:00,67.8,43.3,30.17,SSW,197,4.0,14.0,41,0.00,,,0.00,meteohub,2013-05-14 19:22:00,
2013-05-14 15:27:00,67.8,43.3,30.17,NE,44,2.0,14.0,41,0.00,,,0.00,meteohub,2013-05-14 19:27:00,
2013-05-14 15:32:00,68.0,42.8,30.16,East,99,4.0,9.0,40,0.00,,,0.00,meteohub,2013-05-14 19:32:00,
2013-05-14 15:37:00,67.6,43.2,30.16,ESE,116,6.0,11.0,41,0.00,,,0.00,meteohub,2013-05-14 19:37:00,
2013-05-14 15:42:00,68.2,44.2,30.16,SW,218,7.0,11.0,42,0.00,,,0.00,meteohub,2013-05-14 19:42:00,
2013-05-14 15:46:00,68.4,43.7,30.16,South,179,9.0,15.0,41,0.00,,,0.00,meteohub,2013-05-14 19:46:00,
2013-05-14 15:51:00,68.2,43.5,30.15,SE,134,4.0,15.0,41,0.00,,,0.00,meteohub,2013-05-14 19:51:00,
2013-05-14 15:57:00,68.7,44.1,30.15,South,177,6.0,15.0,41,0.00,,,0.00,meteohub,2013-05-14 19:57:00,
2013-05-14 16:02:00,69.1,44.4,30.15,South,176,3.0,13.0,41,0.00,,,0.00,meteohub,2013-05-14 20:02:00,
2013-05-14 16:07:00,68.7,44.1,30.15,NE,47,1.0,11.0,41,0.00,,,0.00,meteohub,2013-05-14 20:07:00,
2013-05-14 16:12:00,68.7,44.8,30.14,ENE,75,2.0,11.0,42,0.00,,,0.00,meteohub,2013-05-14 20:12:00,
2013-05-14 16:17:00,68.7,45.3,30.14,SSW,195,4.0,13.0,43,0.00,,,0.00,meteohub,2013-05-14 20:17:00,
2013-05-14 16:22:00,69.3,45.1,30.14,SE,128,4.0,13.0,42,0.00,,,0.00,meteohub,2013-05-14 20:22:00,
2013-05-14 16:27:00,69.1,45.7,30.14,ESE,105,2.0,12.0,43,0.00,,,0.00,meteohub,2013-05-14 20:27:00,
2013-05-14 16:32:00,69.3,45.1,30.14,SSW,210,3.0,11.0,42,0.00,,,0.00,meteohub,2013-05-14 20:32:00,
2013-05-14 16:37:00,68.7,45.3,30.14,SW,214,1.0,14.0,43,0.00,,,0.00,meteohub,2013-05-14 20:37:00,
2013-05-14 16:42:00,68.5,45.7,30.14,South,174,2.0,14.0,44,0.00,,,0.00,meteohub,2013-05-14 20:42:00,
2013-05-14 16:47:00,69.1,45.7,30.13,South,186,3.0,14.0,43,0.00,,,0.00,meteohub,2013-05-14 20:47:00,
2013-05-14 16:52:00,68.7,45.9,30.13,ENE,70,3.0,12.0,44,0.00,,,0.00,meteohub,2013-05-14 20:52:00,
2013-05-14 16:57:00,68.5,45.7,30.13,SE,127,9.0,15.0,44,0.00,,,0.00,meteohub,2013-05-14 20:57:00,
2013-05-14 17:02:00,67.8,46.2,30.13,SE,126,5.0,18.0,46,0.00,,,0.00,meteohub,2013-05-14 21:02:00,
2013-05-14 17:07:00,68.5,46.4,30.13,SW,224,10.0,18.0,45,0.00,,,0.00,meteohub,2013-05-14 21:07:00,
2013-05-14 17:12:00,69.3,46.9,30.13,ESE,103,7.0,18.0,45,0.00,,,0.00,meteohub,2013-05-14 21:12:00,
2013-05-14 17:17:00,68.9,46.8,30.13,SSW,194,2.0,14.0,45,0.00,,,0.00,meteohub,2013-05-14 21:17:00,
2013-05-14 17:22:00,69.1,47.5,30.13,ESE,114,3.0,11.0,46,0.00,,,0.00,meteohub,2013-05-14 21:22:00,
2013-05-14 17:27:00,69.8,46.9,30.13,SW,219,3.0,11.0,44,0.00,,,0.00,meteohub,2013-05-14 21:27:00,
2013-05-14 17:32:00,69.3,46.9,30.13,SW,219,3.0,10.0,45,0.00,,,0.00,meteohub,2013-05-14 21:32:00,
2013-05-14 17:37:00,69.3,47.7,30.13,East,95,0.0,11.0,46,0.00,,,0.00,meteohub,2013-05-14 21:37:00,
2013-05-14 17:42:00,69.4,47.1,30.13,ESE,121,4.0,12.0,45,0.00,,,0.00,meteohub,2013-05-14 21:42:00,
2013-05-14 17:47:00,68.2,47.1,30.13,NW,318,0.0,18.0,47,0.00,,,0.00,meteohub,2013-05-14 21:47:00,
2013-05-14 17:52:00,68.4,47.3,30.13,SE,139,9.0,18.0,47,0.00,,,0.00,meteohub,2013-05-14 21:52:00,
2013-05-14 17:57:00,68.4,47.8,30.13,NNE,17,5.0,18.0,48,0.00,,,0.00,meteohub,2013-05-14 21:57:00,
2013-05-14 18:02:00,68.2,47.7,30.12,SSW,204,0.0,12.0,48,0.00,,,0.00,meteohub,2013-05-14 22:02:00,
2013-05-14 18:07:00,68.9,47.8,30.13,SW,221,6.0,12.0,47,0.00,,,0.00,meteohub,2013-05-14 22:07:00,
2013-05-14 18:12:00,68.7,48.7,30.12,ESE,122,2.0,9.0,49,0.00,,,0.00,meteohub,2013-05-14 22:12:00,
2013-05-14 18:17:00,69.1,48.0,30.12,NNE,29,1.0,9.0,47,0.00,,,0.00,meteohub,2013-05-14 22:17:00,
2013-05-14 18:22:00,68.9,48.4,30.12,ENE,63,0.0,11.0,48,0.00,,,0.00,meteohub,2013-05-14 22:22:00,
2013-05-14 18:27:00,68.9,48.4,30.12,NE,34,6.0,11.0,48,0.00,,,0.00,meteohub,2013-05-14 22:27:00,
2013-05-14 18:32:00,68.4,47.8,30.12,ESE,102,2.0,11.0,48,0.00,,,0.00,meteohub,2013-05-14 22:32:00,
2013-05-14 18:37:00,68.5,48.6,30.12,SSE,147,4.0,9.0,49,0.00,,,0.00,meteohub,2013-05-14 22:37:00,
2013-05-14 18:42:00,68.5,48.6,30.12,NE,53,1.0,9.0,49,0.00,,,0.00,meteohub,2013-05-14 22:42:00,
2013-05-14 18:47:00,68.5,48.6,30.12,WSW,248,2.0,9.0,49,0.00,,,0.00,meteohub,2013-05-14 22:47:00,
2013-05-14 18:52:00,68.2,49.3,30.12,ESE,105,3.0,9.0,51,0.00,,,0.00,meteohub,2013-05-14 22:52:00,
2013-05-14 18:57:00,67.8,49.1,30.12,SE,131,2.0,9.0,51,0.00,,,0.00,meteohub,2013-05-14 22:57:00,
2013-05-14 19:02:00,68.0,48.7,30.12,South,186,1.0,9.0,50,0.00,,,0.00,meteohub,2013-05-14 23:02:00,
2013-05-14 19:07:00,68.4,48.9,30.12,WNW,295,0.0,9.0,50,0.00,,,0.00,meteohub,2013-05-14 23:07:00,
2013-05-14 19:12:00,67.8,49.1,30.12,SE,127,3.0,8.0,51,0.00,,,0.00,meteohub,2013-05-14 23:12:00,
2013-05-14 19:17:00,67.5,49.3,30.12,SSE,149,2.0,8.0,52,0.00,,,0.00,meteohub,2013-05-14 23:17:00,
2013-05-14 19:22:00,66.9,49.3,30.12,East,89,2.0,8.0,53,0.00,,,0.00,meteohub,2013-05-14 23:22:00,
2013-05-14 19:27:00,66.7,49.6,30.12,East,101,1.0,8.0,54,0.00,,,0.00,meteohub,2013-05-14 23:27:00,
2013-05-14 19:32:00,66.4,49.3,30.12,ENE,57,0.0,8.0,54,0.00,,,0.00,meteohub,2013-05-14 23:32:00,
2013-05-14 19:37:00,66.0,49.8,30.12,South,185,0.0,5.0,56,0.00,,,0.00,meteohub,2013-05-14 23:37:00,
2013-05-14 19:42:00,65.5,49.8,30.12,SE,139,0.0,5.0,57,0.00,,,0.00,meteohub,2013-05-14 23:42:00,
2013-05-14 19:47:00,64.9,49.8,30.12,SSW,197,0.0,8.0,58,0.00,,,0.00,meteohub,2013-05-14 23:47:00,
2013-05-14 19:52:00,64.2,49.6,30.12,SW,236,0.0,8.0,59,0.00,,,0.00,meteohub,2013-05-14 23:52:00,
2013-05-14 19:57:00,63.9,49.6,30.12,NW,323,0.0,8.0,60,0.00,,,0.00,meteohub,2013-05-14 23:57:00,
2013-05-14 20:02:00,63.1,49.8,30.12,SE,143,0.0,2.0,62,0.00,,,0.00,meteohub,2013-05-15 00:02:00,
2013-05-14 20:07:00,63.0,50.2,30.12,WNW,282,1.0,3.0,63,0.00,,,0.00,meteohub,2013-05-15 00:07:00,
2013-05-14 20:12:00,62.4,50.0,30.12,SSW,207,0.0,3.0,64,0.00,,,0.00,meteohub,2013-05-15 00:12:00,
2013-05-14 20:17:00,62.2,50.4,30.12,SE,126,0.0,6.0,65,0.00,,,0.00,meteohub,2013-05-15 00:17:00,
2013-05-14 20:23:00,62.1,50.2,30.12,SSE,149,0.0,6.0,65,0.00,,,0.00,meteohub,2013-05-15 00:23:00,
2013-05-14 20:28:00,61.9,50.0,30.12,SSE,147,1.0,6.0,65,0.00,,,0.00,meteohub,2013-05-15 00:28:00,
2013-05-14 20:33:00,61.7,50.2,30.12,SSW,195,0.0,4.0,66,0.00,,,0.00,meteohub,2013-05-15 00:33:00,
2013-05-14 20:38:00,61.5,50.0,30.12,SE,129,0.0,4.0,66,0.00,,,0.00,meteohub,2013-05-15 00:38:00,
2013-05-14 20:43:00,61.3,50.4,30.12,SE,141,1.0,4.0,67,0.00,,,0.00,meteohub,2013-05-15 00:43:00,
2013-05-14 20:48:00,61.3,50.7,30.12,SE,139,0.0,3.0,68,0.00,,,0.00,meteohub,2013-05-15 00:48:00,
2013-05-14 20:53:00,61.0,50.7,30.12,SE,134,0.0,3.0,69,0.00,,,0.00,meteohub,2013-05-15 00:53:00,
2013-05-14 20:58:00,60.4,50.5,30.12,South,169,0.0,3.0,70,0.00,,,0.00,meteohub,2013-05-15 00:58:00,
2013-05-14 21:03:00,60.3,50.9,30.12,SSE,151,0.0,2.0,71,0.00,,,0.00,meteohub,2013-05-15 01:03:00,
2013-05-14 21:08:00,60.1,51.1,30.12,SE,140,0.0,2.0,72,0.00,,,0.00,meteohub,2013-05-15 01:08:00,
2013-05-14 21:13:00,59.4,50.7,30.12,East,89,0.0,2.0,73,0.00,,,0.00,meteohub,2013-05-15 01:13:00,
2013-05-14 21:18:00,58.8,50.5,30.12,SSW,203,0.0,2.0,74,0.00,,,0.00,meteohub,2013-05-15 01:18:00,
2013-05-14 21:23:00,58.5,50.9,30.12,SE,127,0.0,1.0,76,0.00,,,0.00,meteohub,2013-05-15 01:23:00,
2013-05-14 21:28:00,57.9,50.7,30.12,East,82,0.0,1.0,77,0.00,,,0.00,meteohub,2013-05-15 01:28:00,
2013-05-14 21:33:00,57.7,50.5,30.12,East,97,0.0,1.0,77,0.00,,,0.00,meteohub,2013-05-15 01:33:00,
2013-05-14 21:38:00,57.9,50.7,30.12,SE,134,1.0,1.0,77,0.00,,,0.00,meteohub,2013-05-15 01:38:00,
2013-05-14 21:43:00,58.3,50.7,30.12,ESE,121,1.0,3.0,76,0.00,,,0.00,meteohub,2013-05-15 01:43:00,
2013-05-14 21:48:00,58.3,51.1,30.12,ESE,114,0.0,3.0,77,0.00,,,0.00,meteohub,2013-05-15 01:48:00,
2013-05-14 21:53:00,58.3,51.1,30.12,SSW,210,1.0,3.0,77,0.00,,,0.00,meteohub,2013-05-15 01:53:00,
2013-05-14 21:58:00,58.6,51.1,30.12,East,101,2.0,2.0,76,0.00,,,0.00,meteohub,2013-05-15 01:58:00,
2013-05-14 22:03:00,58.8,51.3,30.12,South,170,1.0,3.0,76,0.00,,,0.00,meteohub,2013-05-15 02:03:00,
2013-05-14 22:08:00,58.6,51.1,30.12,SE,142,1.0,3.0,76,0.00,,,0.00,meteohub,2013-05-15 02:08:00,
2013-05-14 22:13:00,58.8,51.3,30.13,SE,132,0.0,3.0,76,0.00,,,0.00,meteohub,2013-05-15 02:13:00,
2013-05-14 22:18:00,59.0,51.1,30.13,SE,139,0.0,4.0,75,0.00,,,0.00,meteohub,2013-05-15 02:18:00,
2013-05-14 22:23:00,58.8,50.9,30.13,SSE,156,1.0,4.0,75,0.00,,,0.00,meteohub,2013-05-15 02:23:00,
2013-05-14 22:28:00,59.0,51.1,30.13,ESE,122,0.0,4.0,75,0.00,,,0.00,meteohub,2013-05-15 02:28:00,
2013-05-14 22:33:00,58.8,51.3,30.13,SE,135,2.0,4.0,76,0.00,,,0.00,meteohub,2013-05-15 02:33:00,
2013-05-14 22:38:00,58.8,51.3,30.12,ESE,111,0.0,4.0,76,0.00,,,0.00,meteohub,2013-05-15 02:38:00,
2013-05-14 22:43:00,58.6,51.4,30.12,NE,53,0.0,3.0,77,0.00,,,0.00,meteohub,2013-05-15 02:43:00,
2013-05-14 22:48:00,58.3,51.1,30.12,NE,45,0.0,3.0,77,0.00,,,0.00,meteohub,2013-05-15 02:48:00,
2013-05-14 22:53:00,57.9,51.1,30.12,ESE,114,0.0,3.0,78,0.00,,,0.00,meteohub,2013-05-15 02:53:00,
2013-05-14 22:58:00,57.7,50.9,30.12,East,81,0.0,2.0,78,0.00,,,0.00,meteohub,2013-05-15 02:58:00,
2013-05-14 23:03:00,57.4,50.9,30.12,ENE,67,0.0,2.0,79,0.00,,,0.00,meteohub,2013-05-15 03:03:00,
2013-05-14 23:08:00,57.2,50.7,30.12,SSW,203,0.0,1.0,79,0.00,,,0.00,meteohub,2013-05-15 03:08:00,
2013-05-14 23:13:00,57.6,51.1,30.12,SSW,207,1.0,3.0,79,0.00,,,0.00,meteohub,2013-05-15 03:13:00,
2013-05-14 23:18:00,57.9,51.1,30.12,WSW,246,1.0,3.0,78,0.00,,,0.00,meteohub,2013-05-15 03:18:00,
2013-05-14 23:23:00,58.1,51.3,30.12,SW,219,0.0,3.0,78,0.00,,,0.00,meteohub,2013-05-15 03:23:00,
2013-05-14 23:28:00,58.3,51.4,30.12,SE,146,0.0,5.0,78,0.00,,,0.00,meteohub,2013-05-15 03:28:00,
2013-05-14 23:33:00,58.1,51.3,30.12,SE,131,0.0,5.0,78,0.00,,,0.00,meteohub,2013-05-15 03:33:00,
2013-05-14 23:38:00,57.9,51.1,30.11,ENE,73,0.0,5.0,78,0.00,,,0.00,meteohub,2013-05-15 03:38:00,
2013-05-14 23:43:00,57.7,51.3,30.12,NW,312,0.0,2.0,79,0.00,,,0.00,meteohub,2013-05-15 03:43:00,
2013-05-14 23:48:00,57.4,51.3,30.12,WNW,290,0.0,2.0,80,0.00,,,0.00,meteohub,2013-05-15 03:48:00,
2013-05-14 23:53:00,57.0,51.3,30.12,WNW,290,0.0,2.0,81,0.00,,,0.00,meteohub,2013-05-15 03:53:00,
2013-05-14 23:58:00,56.7,50.9,30.12,NW,309,0.0,0.0,81,0.00,,,0.00,meteohub,2013-05-15 03:58:00,